Time;durP1;ratioP1;P1;durP2;ratioP2;P2;SDS_P1;SDS_P2;PMS_P1;PMS_P2;Temp;Humidity;BMP_temperature;BMP_pressure;BME280_temperature;BME280_humidity;BME280_pressure;Samples;Min_cycle;Max_cycle;Signal;HPM_P1;HPM_P2
2023/08/04 00:00:15;;;;;;;722.90;645.85;;;;;;;;;;6036291;23;20071;-65
2023/08/04 00:02:42;;;;;;;730.97;653.17;;;;;;;;;;6035477;23;20019;-64
2023/08/04 00:05:09;;;;;;;740.67;661.67;;;;;;;;;;6035467;23;20027;-64
2023/08/04 00:07:36;;;;;;;737.97;659.63;;;;;;;;;;6010536;23;20067;-65
2023/08/04 00:10:03;;;;;;;738.95;661.75;;;;;;;;;;6035379;23;20015;-64
2023/08/04 00:12:30;;;;;;;742.33;663.10;;;;;;;;;;6035905;23;20030;-65
2023/08/04 00:14:57;;;;;;;732.35;654.85;;;;;;;;;;6035594;23;20075;-65
2023/08/04 00:17:24;;;;;;;736.47;659.38;;;;;;;;;;6035665;23;20403;-65
2023/08/04 00:19:51;;;;;;;747.47;667.58;;;;;;;;;;6034887;23;20439;-65
2023/08/04 00:22:17;;;;;;;736.22;658.42;;;;;;;;;;6035754;23;20019;-65
2023/08/04 00:24:44;;;;;;;742.10;660.72;;;;;;;;;;6035151;23;20047;-64
2023/08/04 00:27:11;;;;;;;731.28;654.78;;;;;;;;;;6011126;23;20604;-65
2023/08/04 00:29:37;;;;;;;739.67;661.50;;;;;;;;;;6035753;23;20046;-64
2023/08/04 00:32:04;;;;;;;739.72;662.80;;;;;;;;;;6010377;23;20407;-64
2023/08/04 00:34:30;;;;;;;746.25;667.65;;;;;;;;;;6035430;23;20019;-65
2023/08/04 00:36:57;;;;;;;753.55;671.97;;;;;;;;;;6035748;23;20079;-65
2023/08/04 00:39:24;;;;;;;764.13;671.83;;;;;;;;;;6010280;23;20071;-64
2023/08/04 00:41:50;;;;;;;736.15;659.53;;;;;;;;;;6034115;23;20023;-65
2023/08/04 00:44:17;;;;;;;758.30;678.88;;;;;;;;;;6035095;23;20387;-65
2023/08/04 00:46:43;;;;;;;756.10;677.22;;;;;;;;;;6035654;23;20027;-65
2023/08/04 00:49:10;;;;;;;763.17;683.78;;;;;;;;;;6034263;23;20031;-64
2023/08/04 00:51:37;;;;;;;762.50;684.85;;;;;;;;;;6036072;23;20031;-64
2023/08/04 00:54:03;;;;;;;771.65;691.67;;;;;;;;;;6035325;23;20023;-65
2023/08/04 00:56:33;;;;;;;774.08;693.85;;;;;;;;;;6035405;23;20020;-64
2023/08/04 00:59:01;;;;;;;777.33;698.50;;;;;;;;;;6010335;23;20027;-65
2023/08/04 01:01:27;;;;;;;771.85;691.92;;;;;;;;;;6035439;23;20465;-65
2023/08/04 01:03:56;;;;;;;775.17;693.17;;;;;;;;;;6035814;23;20102;-65
2023/08/04 01:06:31;;;;;;;774.80;695.13;;;;;;;;;;6034209;23;20019;-64
2023/08/04 01:09:18;;;;;;;779.25;699.40;;;;;;;;;;6010561;23;20391;-65
2023/08/04 01:11:51;;;;;;;767.47;688.28;;;;;;;;;;6035212;23;20043;-65
2023/08/04 01:14:18;;;;;;;768.13;689.80;;;;;;;;;;6034151;23;20023;-65
2023/08/04 01:16:45;;;;;;;770.60;691.28;;;;;;;;;;6034943;23;20023;-65
2023/08/04 01:19:12;;;;;;;767.28;687.40;;;;;;;;;;6035376;23;20031;-64
2023/08/04 01:21:42;;;;;;;767.90;688.67;;;;;;;;;;6036021;23;20123;-65
2023/08/04 01:24:09;;;;;;;772.78;691.67;;;;;;;;;;6010255;23;20043;-65
2023/08/04 01:26:38;;;;;;;768.70;689.05;;;;;;;;;;6033838;23;20058;-64
2023/08/04 01:29:06;;;;;;;762.35;684.55;;;;;;;;;;6010067;23;20030;-65
2023/08/04 01:31:33;;;;;;;767.95;687.83;;;;;;;;;;6036646;23;20122;-65
2023/08/04 01:34:00;;;;;;;760.92;682.22;;;;;;;;;;6037334;23;20114;-64
2023/08/04 01:36:26;;;;;;;756.40;678.33;;;;;;;;;;6037249;23;20442;-65
2023/08/04 01:38:53;;;;;;;768.80;689.75;;;;;;;;;;6011642;23;20027;-64
2023/08/04 01:41:19;;;;;;;758.22;679.10;;;;;;;;;;6036013;23;20122;-64
2023/08/04 01:43:48;;;;;;;758.63;678.47;;;;;;;;;;6011779;23;20024;-64
2023/08/04 01:46:14;;;;;;;761.90;682.28;;;;;;;;;;6036994;23;20023;-64
2023/08/04 01:48:41;;;;;;;763.13;683.80;;;;;;;;;;6036579;23;20723;-65
2023/08/04 01:51:07;;;;;;;761.10;682.65;;;;;;;;;;6012288;23;20438;-65
2023/08/04 01:53:34;;;;;;;758.70;678.95;;;;;;;;;;6012053;23;20038;-65
2023/08/04 01:56:00;;;;;;;744.92;667.40;;;;;;;;;;6011427;23;20024;-64
2023/08/04 01:58:27;;;;;;;745.95;668.25;;;;;;;;;;6037199;23;20027;-65
2023/08/04 02:00:55;;;;;;;860.10;700.95;;;;;;;;;;6064379;23;20048;-69
2023/08/04 02:03:24;;;;;;;752.45;675.80;;;;;;;;;;6152810;23;20017;-67
2023/08/04 02:05:50;;;;;;;742.03;667.92;;;;;;;;;;6152752;23;20436;-67
2023/08/04 02:08:17;;;;;;;746.15;670.58;;;;;;;;;;6176100;23;20036;-69
2023/08/04 02:10:48;;;;;;;744.38;667.08;;;;;;;;;;6150540;23;20452;-69
2023/08/04 02:13:15;;;;;;;740.50;663.83;;;;;;;;;;6152875;23;20045;-68
2023/08/04 02:15:42;;;;;;;746.60;668.53;;;;;;;;;;6153184;23;20014;-71
2023/08/04 02:18:08;;;;;;;730.70;655.70;;;;;;;;;;6151875;23;20024;-67
2023/08/04 02:20:35;;;;;;;734.17;658.22;;;;;;;;;;6152876;23;20013;-67
2023/08/04 02:23:01;;;;;;;738.58;661.50;;;;;;;;;;6153056;23;20076;-69
2023/08/04 02:25:28;;;;;;;730.38;654.22;;;;;;;;;;6150993;23;20017;-68
2023/08/04 02:27:54;;;;;;;739.35;661.17;;;;;;;;;;6151474;23;20428;-71
2023/08/04 02:30:21;;;;;;;720.00;645.03;;;;;;;;;;6153170;23;20022;-70
2023/08/04 02:32:48;;;;;;;735.67;658.78;;;;;;;;;;6151089;23;20022;-67
2023/08/04 02:35:17;;;;;;;724.00;648.83;;;;;;;;;;6152702;23;20028;-68
2023/08/04 02:37:43;;;;;;;725.80;650.35;;;;;;;;;;6152490;23;20359;-67
2023/08/04 02:40:10;;;;;;;729.67;651.75;;;;;;;;;;6151565;23;20376;-69
2023/08/04 02:42:37;;;;;;;730.00;653.65;;;;;;;;;;6152635;23;20045;-68
2023/08/04 02:45:04;;;;;;;719.33;642.10;;;;;;;;;;6152557;23;20040;-67
2023/08/04 02:47:31;;;;;;;717.47;642.53;;;;;;;;;;6152599;23;20022;-70
2023/08/04 02:49:57;;;;;;;710.80;636.38;;;;;;;;;;6152934;23;20020;-67
2023/08/04 02:52:24;;;;;;;723.83;646.45;;;;;;;;;;6151095;23;20029;-67
2023/08/04 02:54:53;;;;;;;738.50;658.03;;;;;;;;;;6151669;23;20026;-69
2023/08/04 02:57:20;;;;;;;706.03;631.95;;;;;;;;;;6153331;23;20105;-67
2023/08/04 02:59:46;;;;;;;713.42;638.92;;;;;;;;;;6152150;23;20443;-68
2023/08/04 03:02:13;;;;;;;717.75;642.58;;;;;;;;;;6152413;23;20041;-67
2023/08/04 03:04:40;;;;;;;723.90;646.28;;;;;;;;;;6152508;23;20031;-67
2023/08/04 03:07:06;;;;;;;721.40;642.70;;;;;;;;;;6152836;23;20018;-68
2023/08/04 03:09:33;;;;;;;703.53;629.13;;;;;;;;;;6152688;23;20018;-71
2023/08/04 03:11:59;;;;;;;701.67;627.30;;;;;;;;;;6152299;23;20474;-67
2023/08/04 03:14:26;;;;;;;708.50;633.72;;;;;;;;;;6152542;23;20100;-67
2023/08/04 03:16:52;;;;;;;705.22;630.35;;;;;;;;;;6150546;23;20025;-67
2023/08/04 03:19:19;;;;;;;711.05;634.92;;;;;;;;;;6152493;23;20018;-67
2023/08/04 03:21:45;;;;;;;713.03;635.92;;;;;;;;;;6152039;23;20395;-67
2023/08/04 03:24:12;;;;;;;716.70;639.38;;;;;;;;;;6151996;23;20432;-67
2023/08/04 03:26:39;;;;;;;717.05;639.33;;;;;;;;;;6152164;23;20019;-69
2023/08/04 03:29:06;;;;;;;706.22;630.85;;;;;;;;;;6152449;23;20058;-68
2023/08/04 03:31:32;;;;;;;729.38;652.47;;;;;;;;;;6152203;23;20026;-67
2023/08/04 03:33:59;;;;;;;729.03;649.28;;;;;;;;;;6152144;23;20017;-68
2023/08/04 03:36:25;;;;;;;719.72;644.60;;;;;;;;;;6152460;23;20383;-67
2023/08/04 03:38:52;;;;;;;719.90;644.38;;;;;;;;;;6126212;23;20348;-70
2023/08/04 03:41:18;;;;;;;723.70;650.10;;;;;;;;;;6151243;23;20076;-68
2023/08/04 03:43:45;;;;;;;734.95;659.00;;;;;;;;;;6152187;23;20021;-68
2023/08/04 03:46:11;;;;;;;740.35;665.03;;;;;;;;;;6152218;23;20044;-67
2023/08/04 03:48:38;;;;;;;756.88;678.40;;;;;;;;;;6150913;23;20104;-68
2023/08/04 03:51:05;;;;;;;758.25;680.30;;;;;;;;;;6152195;23;20459;-67
2023/08/04 03:53:31;;;;;;;757.28;680.40;;;;;;;;;;6151977;23;20021;-68
2023/08/04 03:55:58;;;;;;;762.72;685.08;;;;;;;;;;6151525;23;20013;-69
2023/08/04 03:58:24;;;;;;;767.03;690.63;;;;;;;;;;6152277;23;20436;-64
2023/08/04 04:00:51;;;;;;;771.13;692.22;;;;;;;;;;6152084;23;20021;-70
2023/08/04 04:03:17;;;;;;;773.25;696.13;;;;;;;;;;6152589;23;20032;-68
2023/08/04 04:05:44;;;;;;;771.05;693.90;;;;;;;;;;6152228;23;20019;-66
2023/08/04 04:08:10;;;;;;;772.88;695.80;;;;;;;;;;6152293;23;20052;-67
2023/08/04 04:10:37;;;;;;;770.10;692.20;;;;;;;;;;6151833;23;20056;-68
2023/08/04 04:13:03;;;;;;;769.47;691.53;;;;;;;;;;6152423;23;20084;-68
2023/08/04 04:15:30;;;;;;;770.85;693.35;;;;;;;;;;6152641;23;20063;-66
2023/08/04 04:17:57;;;;;;;779.92;702.50;;;;;;;;;;6151845;23;20021;-67
2023/08/04 04:20:23;;;;;;;784.50;708.35;;;;;;;;;;6152031;23;20048;-67
2023/08/04 04:22:52;;;;;;;785.25;706.80;;;;;;;;;;6152024;23;20017;-69
2023/08/04 04:25:19;;;;;;;789.78;712.28;;;;;;;;;;6151795;23;20340;-66
2023/08/04 04:27:46;;;;;;;844.25;760.00;;;;;;;;;;6150364;23;20432;-66
2023/08/04 04:30:12;;;;;;;882.92;800.47;;;;;;;;;;6152211;23;20052;-67
2023/08/04 04:32:39;;;;;;;920.95;835.20;;;;;;;;;;6151404;23;20027;-65
2023/08/04 04:35:05;;;;;;;956.80;867.67;;;;;;;;;;6151659;23;20025;-64
2023/08/04 04:37:32;;;;;;;987.35;897.17;;;;;;;;;;6151224;23;20017;-64
2023/08/04 04:39:58;;;;;;;1013.30;919.95;;;;;;;;;;6148945;23;20045;-66
2023/08/04 04:42:25;;;;;;;1040.65;948.67;;;;;;;;;;6150051;23;20064;-66
2023/08/04 04:44:52;;;;;;;1059.88;967.40;;;;;;;;;;6151565;23;20059;-65
2023/08/04 04:47:18;;;;;;;1083.07;987.58;;;;;;;;;;6151404;23;20017;-65
2023/08/04 04:49:45;;;;;;;1093.05;996.60;;;;;;;;;;6151978;23;20052;-69
2023/08/04 04:52:13;;;;;;;1100.28;999.03;;;;;;;;;;6151533;23;20022;-66
2023/08/04 04:54:40;;;;;;;1092.45;995.55;;;;;;;;;;6149747;23;20021;-65
2023/08/04 04:57:07;;;;;;;1091.35;994.67;;;;;;;;;;6149556;23;20022;-64
2023/08/04 04:59:33;;;;;;;1076.95;983.90;;;;;;;;;;6149808;23;20029;-65
2023/08/04 05:02:00;;;;;;;1077.85;983.17;;;;;;;;;;6150748;23;20018;-64
2023/08/04 05:04:26;;;;;;;1074.68;981.58;;;;;;;;;;6151004;23;20021;-63
2023/08/04 05:06:53;;;;;;;1081.28;986.15;;;;;;;;;;6151370;23;20426;-66
2023/08/04 05:09:19;;;;;;;1088.07;990.03;;;;;;;;;;6150912;23;20464;-65
2023/08/04 05:11:46;;;;;;;1094.55;997.53;;;;;;;;;;6151476;23;20076;-66
2023/08/04 05:14:13;;;;;;;1103.65;999.90;;;;;;;;;;6149775;23;20021;-65
2023/08/04 05:16:40;;;;;;;1113.75;999.90;;;;;;;;;;6149736;23;20440;-64
2023/08/04 05:19:07;;;;;;;1119.53;999.90;;;;;;;;;;6151204;23;20343;-64
2023/08/04 05:21:34;;;;;;;1121.75;999.90;;;;;;;;;;6152044;23;20014;-64
2023/08/04 05:24:00;;;;;;;1117.47;999.90;;;;;;;;;;6151457;23;20084;-67
2023/08/04 05:26:27;;;;;;;1111.40;999.90;;;;;;;;;;6149368;23;20021;-65
2023/08/04 05:28:53;;;;;;;1113.85;999.90;;;;;;;;;;6151459;23;20049;-65
2023/08/04 05:31:20;;;;;;;1123.55;999.90;;;;;;;;;;6151558;23;20017;-63
2023/08/04 05:33:46;;;;;;;1129.05;999.90;;;;;;;;;;6151427;23;20013;-66
2023/08/04 05:36:13;;;;;;;1122.82;999.90;;;;;;;;;;6151384;23;20438;-67
2023/08/04 05:38:40;;;;;;;1126.60;999.90;;;;;;;;;;6150966;23;20032;-66
2023/08/04 05:41:06;;;;;;;1127.78;999.90;;;;;;;;;;6150480;23;20018;-65
2023/08/04 05:43:33;;;;;;;1127.57;999.90;;;;;;;;;;6151434;23;20025;-66
2023/08/04 05:46:02;;;;;;;1124.00;999.90;;;;;;;;;;6151185;23;20022;-66
2023/08/04 05:48:29;;;;;;;1112.80;999.90;;;;;;;;;;6149922;23;20022;-65
2023/08/04 05:50:56;;;;;;;1105.35;999.90;;;;;;;;;;6149780;23;20025;-66
2023/08/04 05:53:23;;;;;;;1096.57;998.65;;;;;;;;;;6151514;23;20027;-67
2023/08/04 05:55:49;;;;;;;1088.82;994.15;;;;;;;;;;6150606;23;20026;-64
2023/08/04 05:58:16;;;;;;;1084.88;990.17;;;;;;;;;;6151349;23;20021;-65
2023/08/04 06:00:43;;;;;;;1083.13;988.20;;;;;;;;;;6150004;23;20112;-65
2023/08/04 06:03:09;;;;;;;1081.82;984.97;;;;;;;;;;6150869;23;20080;-64
2023/08/04 06:05:36;;;;;;;1077.82;983.95;;;;;;;;;;6151593;23;20018;-64
2023/08/04 06:08:03;;;;;;;1068.20;974.95;;;;;;;;;;6151051;23;20040;-63
2023/08/04 06:10:30;;;;;;;1071.50;975.38;;;;;;;;;;6150594;23;20100;-66
2023/08/04 06:12:57;;;;;;;1063.93;967.70;;;;;;;;;;6149774;23;20018;-64
2023/08/04 06:15:23;;;;;;;1058.13;965.83;;;;;;;;;;6151614;23;20025;-65
2023/08/04 06:17:50;;;;;;;1055.55;963.60;;;;;;;;;;6151752;23;20018;-64
2023/08/04 06:20:17;;;;;;;1078.50;983.40;;;;;;;;;;6151091;23;20080;-66
2023/08/04 06:22:45;;;;;;;1088.75;993.65;;;;;;;;;;6152876;23;20162;-64
2023/08/04 06:25:14;;;;;;;1106.20;999.90;;;;;;;;;;6150839;23;20021;-66
2023/08/04 06:27:41;;;;;;;1113.47;999.90;;;;;;;;;;6151946;23;20025;-64
2023/08/04 06:30:08;;;;;;;1120.22;999.90;;;;;;;;;;6151230;23;20124;-65
2023/08/04 06:32:34;;;;;;;1135.35;999.90;;;;;;;;;;6152814;23;20548;-65
2023/08/04 06:35:01;;;;;;;1139.85;999.90;;;;;;;;;;6153007;23;20044;-66
2023/08/04 06:37:28;;;;;;;1137.53;999.90;;;;;;;;;;6151356;23;20072;-64
2023/08/04 06:39:55;;;;;;;1140.70;999.90;;;;;;;;;;6150438;23;20025;-65
2023/08/04 06:42:21;;;;;;;1137.25;999.90;;;;;;;;;;6153043;23;20068;-66
2023/08/04 06:44:48;;;;;;;1128.70;999.90;;;;;;;;;;6152235;23;20025;-66
2023/08/04 06:47:14;;;;;;;1134.32;999.90;;;;;;;;;;6152723;23;20025;-65
2023/08/04 06:49:41;;;;;;;1129.10;999.90;;;;;;;;;;6152769;23;20025;-67
2023/08/04 06:52:08;;;;;;;1129.63;999.90;;;;;;;;;;6151197;23;20021;-65
2023/08/04 06:54:35;;;;;;;1127.15;999.90;;;;;;;;;;6152592;23;20397;-64
2023/08/04 06:57:02;;;;;;;1124.88;999.90;;;;;;;;;;6150890;23;20028;-66
2023/08/04 06:59:29;;;;;;;1125.07;999.90;;;;;;;;;;6152845;23;20013;-64
2023/08/04 07:01:55;;;;;;;1119.40;999.90;;;;;;;;;;6152452;23;20022;-64
2023/08/04 07:04:22;;;;;;;1126.47;999.90;;;;;;;;;;6152451;23;20528;-66
2023/08/04 07:06:48;;;;;;;1122.63;999.90;;;;;;;;;;6151162;23;20017;-64
2023/08/04 07:09:15;;;;;;;1130.00;999.90;;;;;;;;;;6152290;23;20037;-65
2023/08/04 07:11:42;;;;;;;1119.50;999.90;;;;;;;;;;6150805;23;20100;-67
2023/08/04 07:14:08;;;;;;;1123.82;999.90;;;;;;;;;;6152628;23;20017;-65
2023/08/04 07:16:35;;;;;;;1124.97;999.90;;;;;;;;;;6152222;23;20025;-64
2023/08/04 07:19:02;;;;;;;1124.45;999.90;;;;;;;;;;6152395;23;20024;-66
2023/08/04 07:21:28;;;;;;;1126.93;999.90;;;;;;;;;;6151373;23;20033;-67
2023/08/04 07:23:55;;;;;;;1135.78;999.90;;;;;;;;;;6152090;23;20017;-67
2023/08/04 07:26:22;;;;;;;1142.93;999.90;;;;;;;;;;6151827;23;20072;-67
2023/08/04 07:28:48;;;;;;;1153.22;999.90;;;;;;;;;;6152125;23;20021;-66
2023/08/04 07:31:15;;;;;;;1157.07;999.90;;;;;;;;;;6152203;23;20025;-67
2023/08/04 07:33:42;;;;;;;1165.45;999.90;;;;;;;;;;6152345;23;20347;-66
2023/08/04 07:36:08;;;;;;;1167.38;999.90;;;;;;;;;;6152155;23;20053;-64
2023/08/04 07:38:35;;;;;;;1172.80;999.90;;;;;;;;;;6150367;23;20021;-65
2023/08/04 07:41:01;;;;;;;1175.88;999.90;;;;;;;;;;6149452;23;20134;-65
2023/08/04 07:43:28;;;;;;;1173.82;999.90;;;;;;;;;;6151962;23;20045;-67
2023/08/04 07:45:55;;;;;;;1173.10;999.90;;;;;;;;;;6152336;23;20440;-64
2023/08/04 07:48:22;;;;;;;1161.63;999.90;;;;;;;;;;6150803;23;20081;-64
2023/08/04 07:50:49;;;;;;;1165.93;999.90;;;;;;;;;;6151986;23;20049;-65
2023/08/04 07:53:21;;;;;;;1163.47;999.90;;;;;;;;;;6151828;23;20013;-66
2023/08/04 07:55:55;;;;;;;1160.75;999.90;;;;;;;;;;6151249;23;20399;-68
2023/08/04 07:58:21;;;;;;;1155.22;999.90;;;;;;;;;;6151977;23;20017;-65
2023/08/04 08:00:48;;;;;;;1151.72;999.90;;;;;;;;;;6150774;23;20021;-67
2023/08/04 08:03:16;;;;;;;1155.65;999.90;;;;;;;;;;6149930;23;20126;-66
2023/08/04 08:05:43;;;;;;;1156.22;999.90;;;;;;;;;;6125933;23;20067;-67
2023/08/04 08:08:09;;;;;;;1145.78;999.90;;;;;;;;;;6152035;23;20022;-66
2023/08/04 08:10:36;;;;;;;1142.25;999.90;;;;;;;;;;6151273;23;20091;-65
2023/08/04 08:13:03;;;;;;;1143.50;999.90;;;;;;;;;;6151449;23;20018;-68
2023/08/04 08:15:30;;;;;;;1127.00;999.90;;;;;;;;;;6150639;23;20033;-67
2023/08/04 08:17:56;;;;;;;1132.30;999.90;;;;;;;;;;6150183;23;20080;-64
2023/08/04 08:20:23;;;;;;;1126.47;999.90;;;;;;;;;;6150083;23;20029;-66
2023/08/04 08:22:50;;;;;;;1116.97;999.90;;;;;;;;;;6150129;23;20027;-66
2023/08/04 08:25:16;;;;;;;1121.05;999.90;;;;;;;;;;6151056;23;20021;-70
2023/08/04 08:27:43;;;;;;;1106.75;999.90;;;;;;;;;;6152424;23;20017;-67
2023/08/04 08:30:10;;;;;;;1106.28;999.90;;;;;;;;;;6151643;23;20047;-67
2023/08/04 08:32:36;;;;;;;1102.95;999.67;;;;;;;;;;6151280;23;20024;-65
2023/08/04 08:35:03;;;;;;;1103.60;999.90;;;;;;;;;;6151684;23;20014;-68
2023/08/04 08:37:30;;;;;;;1099.50;999.03;;;;;;;;;;6151485;23;20018;-70
2023/08/04 08:39:56;;;;;;;1113.90;999.90;;;;;;;;;;6173620;23;20379;-65
2023/08/04 08:42:23;;;;;;;1092.40;996.58;;;;;;;;;;6150385;23;20458;-69
2023/08/04 08:44:50;;;;;;;1099.65;999.33;;;;;;;;;;6149950;23;20017;-68
2023/08/04 08:47:17;;;;;;;1092.03;996.40;;;;;;;;;;6149932;23;20021;-66
2023/08/04 08:49:45;;;;;;;1093.93;996.97;;;;;;;;;;6149906;23;20025;-67
2023/08/04 08:52:12;;;;;;;1098.40;998.97;;;;;;;;;;6151318;23;20564;-66
2023/08/04 08:54:38;;;;;;;1104.38;999.90;;;;;;;;;;6151269;23;20021;-66
2023/08/04 08:57:05;;;;;;;1098.88;999.40;;;;;;;;;;6151413;23;20028;-68
2023/08/04 08:59:32;;;;;;;1098.78;999.17;;;;;;;;;;6151332;23;20049;-66
2023/08/04 09:02:01;;;;;;;1098.82;998.72;;;;;;;;;;6151488;23;20080;-68
2023/08/04 09:04:31;;;;;;;1091.15;996.65;;;;;;;;;;6151532;23;20018;-68
2023/08/04 09:06:58;;;;;;;1102.07;998.58;;;;;;;;;;6151453;23;20037;-66
2023/08/04 09:09:24;;;;;;;1089.90;994.70;;;;;;;;;;6151128;23;20025;-66
2023/08/04 09:11:51;;;;;;;1087.90;994.10;;;;;;;;;;6151467;23;20432;-67
2023/08/04 09:14:18;;;;;;;1084.25;989.63;;;;;;;;;;6149767;23;20023;-67
2023/08/04 09:16:47;;;;;;;1090.15;994.28;;;;;;;;;;6151079;23;20021;-65
2023/08/04 09:19:14;;;;;;;1088.88;993.97;;;;;;;;;;6150033;23;20021;-69
2023/08/04 09:21:41;;;;;;;1081.57;987.30;;;;;;;;;;6151579;23;20101;-65
2023/08/04 09:24:09;;;;;;;1090.75;994.20;;;;;;;;;;6150958;23;20403;-71
2023/08/04 09:26:41;;;;;;;1084.35;989.53;;;;;;;;;;6151276;23;20021;-66
2023/08/04 09:29:07;;;;;;;1093.95;996.42;;;;;;;;;;6149827;23;20072;-65
2023/08/04 09:31:35;;;;;;;1098.15;998.78;;;;;;;;;;6151529;23;20025;-66
2023/08/04 09:34:04;;;;;;;1103.53;999.28;;;;;;;;;;6125373;23;20041;-70
2023/08/04 09:36:31;;;;;;;1097.15;998.85;;;;;;;;;;6152001;23;20017;-67
2023/08/04 09:39:04;;;;;;;1105.65;999.90;;;;;;;;;;6151103;23;20044;-66
2023/08/04 09:41:36;;;;;;;1102.47;999.90;;;;;;;;;;6124750;23;20049;-67
2023/08/04 09:44:04;;;;;;;1096.03;998.35;;;;;;;;;;6151344;23;20020;-72
2023/08/04 09:46:31;;;;;;;1103.38;999.90;;;;;;;;;;6151106;23;20018;-69
2023/08/04 09:48:58;;;;;;;1108.53;999.90;;;;;;;;;;6149592;23;20408;-67
2023/08/04 09:51:26;;;;;;;1104.45;999.90;;;;;;;;;;6152012;23;20024;-66
2023/08/04 09:53:54;;;;;;;1106.80;999.90;;;;;;;;;;6151795;23;20092;-67
2023/08/04 09:56:23;;;;;;;1103.53;999.90;;;;;;;;;;6150989;23;20352;-67
2023/08/04 09:58:50;;;;;;;1106.43;999.90;;;;;;;;;;6151446;23;20025;-70
2023/08/04 10:01:20;;;;;;;1096.68;999.22;;;;;;;;;;6152694;23;20994;-65
2023/08/04 10:03:54;;;;;;;1101.50;999.80;;;;;;;;;;6151670;23;20091;-69
2023/08/04 10:06:21;;;;;;;1093.72;996.38;;;;;;;;;;6152128;23;20041;-66
2023/08/04 10:08:48;;;;;;;1095.20;997.70;;;;;;;;;;6151410;23;20026;-65
2023/08/04 10:11:15;;;;;;;1102.20;999.90;;;;;;;;;;6150768;23;20048;-66
2023/08/04 10:13:43;;;;;;;1097.57;998.33;;;;;;;;;;6175997;23;20021;-65
2023/08/04 10:16:13;;;;;;;1095.57;996.38;;;;;;;;;;6151585;23;20029;-67
2023/08/04 10:18:53;;;;;;;1095.32;997.45;;;;;;;;;;6176501;23;20079;-70
2023/08/04 10:21:21;;;;;;;1088.32;993.92;;;;;;;;;;6151699;23;20041;-67
2023/08/04 10:23:51;;;;;;;1108.95;993.45;;;;;;;;;;6152829;23;20088;-65
2023/08/04 10:26:17;;;;;;;1095.43;998.53;;;;;;;;;;6152273;23;20482;-65
2023/08/04 10:29:02;;;;;;;1104.05;999.85;;;;;;;;;;6152830;23;20440;-73
2023/08/04 10:31:44;;;;;;;1101.07;999.05;;;;;;;;;;6153023;23;20028;-67
2023/08/04 10:34:19;;;;;;;1105.32;999.90;;;;;;;;;;6152973;23;20428;-67
2023/08/04 10:37:01;;;;;;;1105.53;999.90;;;;;;;;;;6151999;23;20017;-66
2023/08/04 10:39:28;;;;;;;1122.53;999.90;;;;;;;;;;6150976;23;20080;-67
2023/08/04 10:41:58;;;;;;;1108.25;999.90;;;;;;;;;;6152423;23;20329;-67
2023/08/04 10:44:29;;;;;;;1107.68;999.90;;;;;;;;;;6175723;23;20022;-67
2023/08/04 10:46:59;;;;;;;1106.18;999.90;;;;;;;;;;6152345;23;20041;-71
2023/08/04 10:49:26;;;;;;;1108.60;999.90;;;;;;;;;;6151307;23;20053;-68
2023/08/04 10:51:53;;;;;;;1113.25;999.90;;;;;;;;;;6151219;23;20021;-68
2023/08/04 10:54:20;;;;;;;1122.43;999.90;;;;;;;;;;6152636;23;20022;-67
2023/08/04 10:56:46;;;;;;;1121.03;999.90;;;;;;;;;;6150825;23;20415;-65
2023/08/04 10:59:13;;;;;;;1118.03;999.90;;;;;;;;;;6152424;23;20018;-70
2023/08/04 11:01:39;;;;;;;1120.10;999.90;;;;;;;;;;6152493;23;20088;-66
2023/08/04 11:04:06;;;;;;;1126.53;999.90;;;;;;;;;;6151762;23;20021;-66
2023/08/04 11:06:33;;;;;;;1115.72;999.90;;;;;;;;;;6152811;23;20440;-69
2023/08/04 11:08:59;;;;;;;1121.53;999.90;;;;;;;;;;6150574;23;20021;-70
2023/08/04 11:11:26;;;;;;;1119.80;999.90;;;;;;;;;;6151843;23;20017;-67
2023/08/04 11:13:55;;;;;;;1115.60;999.90;;;;;;;;;;6152429;23;20020;-67
2023/08/04 11:16:23;;;;;;;1120.60;999.90;;;;;;;;;;6152027;23;20022;-67
2023/08/04 11:18:52;;;;;;;1124.97;999.90;;;;;;;;;;6150742;23;20028;-68
2023/08/04 11:21:19;;;;;;;1116.95;999.90;;;;;;;;;;6152140;23;20025;-68
2023/08/04 11:23:47;;;;;;;1120.03;999.90;;;;;;;;;;6151944;23;20367;-67
2023/08/04 11:26:14;;;;;;;1120.95;999.90;;;;;;;;;;6150138;23;20083;-68
2023/08/04 11:28:41;;;;;;;1131.10;999.90;;;;;;;;;;6150596;23;20021;-67
2023/08/04 11:31:08;;;;;;;1125.65;999.90;;;;;;;;;;6152096;23;20024;-66
2023/08/04 11:33:43;;;;;;;1118.65;999.90;;;;;;;;;;6151078;23;20009;-67
2023/08/04 11:36:10;;;;;;;1110.60;999.90;;;;;;;;;;6150618;23;20028;-69
2023/08/04 11:38:37;;;;;;;1111.70;999.90;;;;;;;;;;6150333;23;20024;-66
2023/08/04 11:41:07;;;;;;;1108.95;999.90;;;;;;;;;;6151440;23;20025;-68
2023/08/04 11:43:34;;;;;;;1112.70;999.90;;;;;;;;;;6150796;23;20029;-70
2023/08/04 11:46:03;;;;;;;1120.45;999.90;;;;;;;;;;6152464;23;20018;-66
2023/08/04 11:48:32;;;;;;;1111.00;999.90;;;;;;;;;;6154213;23;20017;-71
2023/08/04 11:50:59;;;;;;;1113.45;999.90;;;;;;;;;;6151707;23;20018;-68
2023/08/04 11:53:26;;;;;;;1108.53;999.90;;;;;;;;;;6151988;23;20142;-68
2023/08/04 11:55:53;;;;;;;1110.30;999.90;;;;;;;;;;6151356;23;20025;-66
2023/08/04 11:58:37;;;;;;;1108.88;999.90;;;;;;;;;;6150047;23;20017;-68
2023/08/04 12:01:03;;;;;;;;;;;;;;;;;;6152281;23;20041;-75
2023/08/04 12:03:47;;;;;;;1105.65;999.90;;;;;;;;;;6150818;23;19943;-68
2023/08/04 12:06:18;;;;;;;1108.97;999.90;;;;;;;;;;6150701;23;20037;-73
2023/08/04 12:08:48;;;;;;;1110.55;999.90;;;;;;;;;;6150270;23;20033;-72
2023/08/04 12:11:16;;;;;;;1107.75;999.90;;;;;;;;;;6149801;23;20340;-69
2023/08/04 12:13:42;;;;;;;1112.68;999.90;;;;;;;;;;6150364;23;20021;-66
2023/08/04 12:16:09;;;;;;;1108.72;999.90;;;;;;;;;;6151733;23;20021;-71
2023/08/04 12:18:36;;;;;;;1115.40;999.90;;;;;;;;;;6151775;23;20468;-68
2023/08/04 12:21:03;;;;;;;1116.47;999.90;;;;;;;;;;6151800;23;20021;-72
2023/08/04 12:23:29;;;;;;;1101.93;999.90;;;;;;;;;;6151452;23;20076;-70
2023/08/04 12:25:56;;;;;;;1112.80;999.90;;;;;;;;;;6149654;23;20029;-69
2023/08/04 12:28:23;;;;;;;1110.75;999.90;;;;;;;;;;6151243;23;20068;-66
2023/08/04 12:30:50;;;;;;;1102.90;999.90;;;;;;;;;;6150389;23;20018;-73
2023/08/04 12:33:36;;;;;;;1100.28;999.33;;;;;;;;;;6151124;23;20022;-66
2023/08/04 12:36:03;;;;;;;1108.53;999.90;;;;;;;;;;6151345;23;20404;-68
2023/08/04 12:38:30;;;;;;;1106.72;999.90;;;;;;;;;;6151238;23;20092;-68
2023/08/04 12:40:56;;;;;;;1100.88;999.28;;;;;;;;;;6150588;23;20080;-70
2023/08/04 12:43:23;;;;;;;1106.95;999.90;;;;;;;;;;6150270;23;20024;-67
2023/08/04 12:45:50;;;;;;;1098.18;999.35;;;;;;;;;;6150305;23;20101;-71
2023/08/04 12:48:19;;;;;;;1101.03;999.55;;;;;;;;;;6150122;23;20041;-69
2023/08/04 12:50:45;;;;;;;1106.60;999.90;;;;;;;;;;6150951;23;20053;-70
2023/08/04 12:53:14;;;;;;;1100.75;999.30;;;;;;;;;;6151113;23;20111;-66
2023/08/04 12:55:40;;;;;;;1095.63;997.78;;;;;;;;;;6151113;23;20028;-69
2023/08/04 12:58:08;;;;;;;1112.30;999.90;;;;;;;;;;6149954;23;20017;-67
2023/08/04 13:00:35;;;;;;;1104.57;999.40;;;;;;;;;;6151629;23;20021;-68
2023/08/04 13:03:01;;;;;;;1112.45;999.90;;;;;;;;;;6151305;23;20068;-69
2023/08/04 13:05:28;;;;;;;1112.80;999.90;;;;;;;;;;6151679;23;20353;-69
2023/08/04 13:07:56;;;;;;;1105.72;999.90;;;;;;;;;;6151663;23;20041;-68
2023/08/04 13:10:23;;;;;;;1107.72;999.90;;;;;;;;;;6149267;23;20344;-68
2023/08/04 13:12:50;;;;;;;1107.10;999.90;;;;;;;;;;6151850;23;20459;-75
2023/08/04 13:15:17;;;;;;;1103.50;999.90;;;;;;;;;;6150199;23;20409;-67
2023/08/04 13:17:43;;;;;;;1107.13;999.90;;;;;;;;;;6151052;23;20458;-66
2023/08/04 13:20:10;;;;;;;1110.47;999.90;;;;;;;;;;6151486;23;20045;-70
2023/08/04 13:22:37;;;;;;;1116.72;999.90;;;;;;;;;;6151375;23;20020;-66
2023/08/04 13:25:07;;;;;;;1118.93;999.90;;;;;;;;;;6174102;23;20068;-67
2023/08/04 13:27:34;;;;;;;1113.68;999.90;;;;;;;;;;6152120;23;20451;-70
2023/08/04 13:30:01;;;;;;;1114.25;999.90;;;;;;;;;;6153375;23;20075;-68
2023/08/04 13:32:27;;;;;;;1119.53;999.90;;;;;;;;;;6151633;23;20432;-69
2023/08/04 13:34:54;;;;;;;1118.22;999.90;;;;;;;;;;6153252;23;20014;-73
2023/08/04 13:37:21;;;;;;;1122.78;999.90;;;;;;;;;;6153485;23;20017;-74
2023/08/04 13:39:47;;;;;;;1130.47;999.90;;;;;;;;;;6152568;23;20028;-68
2023/08/04 13:42:14;;;;;;;1129.18;999.90;;;;;;;;;;6153131;23;20017;-67
2023/08/04 13:44:40;;;;;;;1132.65;999.90;;;;;;;;;;6151485;23;20064;-69